Time;durP1;ratioP1;P1;durP2;ratioP2;P2;SDS_P1;SDS_P2;PMS_P1;PMS_P2;Temp;Humidity;BMP_temperature;BMP_pressure;BME280_temperature;BME280_humidity;BME280_pressure;Samples;Min_cycle;Max_cycle;Signal;HPM_P1;HPM_P2
2022/05/12 00:01:11;;;;;;;5.27;2.10;;;;;;;17.78;59.88;99415.38;5031361;28;20242;-81
2022/05/12 00:03:37;;;;;;;5.20;1.80;;;;;;;17.90;59.45;99423.34;5030451;28;20190;-81
2022/05/12 00:06:03;;;;;;;3.47;1.73;;;;;;;17.89;59.68;99419.00;5029427;28;20593;-81
2022/05/12 00:08:29;;;;;;;5.70;2.37;;;;;;;17.98;59.63;99418.25;5030721;28;20171;-82
2022/05/12 00:10:54;;;;;;;4.60;2.20;;;;;;;17.98;59.42;99415.59;5030941;28;20178;-81
2022/05/12 00:13:20;;;;;;;3.07;1.60;;;;;;;17.76;60.43;99419.94;5030652;28;20525;-81
2022/05/12 00:15:48;;;;;;;6.27;2.27;;;;;;;17.74;60.46;99411.25;5029653;28;20174;-81
2022/05/12 00:18:14;;;;;;;4.33;2.10;;;;;;;17.70;60.22;99415.13;5030570;28;20179;-82
2022/05/12 00:20:41;;;;;;;5.17;2.07;;;;;;;17.64;60.71;99412.94;5030805;28;20245;-81
2022/05/12 00:23:14;;;;;;;4.37;2.00;;;;;;;17.64;60.65;99412.06;5030404;28;20189;-81
2022/05/12 00:25:42;;;;;;;3.17;1.87;;;;;;;17.61;60.75;99405.19;5030790;28;20163;-81
2022/05/12 00:28:08;;;;;;;4.00;2.00;;;;;;;17.66;60.55;99411.00;5030444;28;20701;-81
2022/05/12 00:30:34;;;;;;;3.97;2.17;;;;;;;17.68;60.28;99403.78;5030831;28;20217;-81
2022/05/12 00:33:01;;;;;;;5.50;2.17;;;;;;;17.68;60.45;99414.41;5030375;28;20194;-81
2022/05/12 00:35:26;;;;;;;3.07;1.97;;;;;;;17.73;60.00;99406.94;5030316;28;20185;-81
2022/05/12 00:37:51;;;;;;;3.47;2.00;;;;;;;17.77;59.37;99402.22;5030543;28;20174;-81
2022/05/12 00:40:17;;;;;;;3.67;1.70;;;;;;;17.72;59.76;99409.69;5030267;28;20174;-81
2022/05/12 00:43:01;;;;;;;5.97;2.20;;;;;;;17.56;60.56;99410.00;5030207;28;20552;-82
2022/05/12 00:45:29;;;;;;;3.17;1.73;;;;;;;17.55;60.50;99412.81;5029217;28;20243;-82
2022/05/12 00:47:55;;;;;;;4.23;1.90;;;;;;;17.61;60.24;99407.84;5030172;28;20189;-82
2022/05/12 00:50:26;;;;;;;3.60;1.77;;;;;;;17.68;59.96;99409.09;5030167;28;20177;-81
2022/05/12 00:52:52;;;;;;;6.03;2.17;;;;;;;17.60;60.17;99400.88;5030157;28;20162;-81
2022/05/12 00:55:27;;;;;;;6.70;2.43;;;;;;;17.47;60.77;99409.84;5029061;28;20189;-81
2022/05/12 00:57:55;;;;;;;5.77;2.20;;;;;;;17.40;60.78;99406.81;5029249;28;20178;-81
2022/05/12 01:00:23;;;;;;;15.27;5.13;;;;;;;17.39;60.76;99406.94;5030067;28;20181;-82
2022/05/12 01:02:53;;;;;;;8.23;3.60;;;;;;;17.32;61.01;99417.16;5029952;28;20220;-82
2022/05/12 01:05:19;;;;;;;5.87;2.67;;;;;;;17.26;61.18;99414.13;5030326;28;20170;-82
2022/05/12 01:07:45;;;;;;;6.23;3.33;;;;;;;17.28;61.03;99418.34;5030228;28;20275;-82
2022/05/12 01:10:10;;;;;;;5.00;2.47;;;;;;;17.22;61.18;99415.34;5029909;28;20178;-82
2022/05/12 01:12:38;;;;;;;6.47;3.53;;;;;;;17.08;61.81;99408.41;5029860;28;20190;-82
2022/05/12 01:15:05;;;;;;;7.77;2.53;;;;;;;17.04;61.92;99409.59;5029879;28;20186;-82
2022/05/12 01:17:30;;;;;;;4.60;2.33;;;;;;;17.14;61.74;99413.22;5032679;28;20178;-81
2022/05/12 01:19:56;;;;;;;4.70;2.60;;;;;;;17.19;61.59;99413.72;5033306;28;20227;-82
2022/05/12 01:22:48;;;;;;;6.97;2.43;;;;;;;17.16;61.25;99412.16;5033231;28;20198;-81
2022/05/12 01:25:17;;;;;;;5.30;2.37;;;;;;;17.07;61.64;99417.31;5033583;28;20207;-81
2022/05/12 01:27:43;;;;;;;3.37;2.07;;;;;;;16.89;62.26;99413.38;5033170;28;20174;-81
2022/05/12 01:30:11;;;;;;;5.87;2.17;;;;;;;16.86;62.28;99414.47;5033399;28;20177;-81
2022/05/12 01:32:37;;;;;;;4.77;2.20;;;;;;;16.75;62.48;99410.88;5033086;28;20256;-81
2022/05/12 01:35:04;;;;;;;4.83;2.43;;;;;;;16.70;62.72;99410.38;5033362;28;20534;-81
2022/05/12 01:37:30;;;;;;;6.43;2.10;;;;;;;16.66;63.07;99419.53;5032102;28;20190;-81
2022/05/12 01:39:56;;;;;;;3.40;2.17;;;;;;;16.68;62.80;99417.59;5032147;28;20261;-83
2022/05/12 01:42:22;;;;;;;7.77;2.40;;;;;;;16.72;62.93;99419.91;5033255;28;20331;-83
2022/05/12 01:44:48;;;;;;;3.73;2.27;;;;;;;16.72;62.94;99421.72;5033040;28;20240;-83
2022/05/12 01:47:14;;;;;;;5.93;2.33;;;;;;;16.61;62.70;99414.56;5032992;28;20178;-83
2022/05/12 01:49:40;;;;;;;6.43;2.30;;;;;;;16.54;62.96;99424.75;5032931;28;20175;-83
2022/05/12 01:52:06;;;;;;;4.43;2.07;;;;;;;16.42;63.44;99424.75;5032872;28;20624;-83
2022/05/12 01:54:32;;;;;;;4.93;2.30;;;;;;;16.31;63.95;99422.88;5032896;28;20649;-83
2022/05/12 01:56:58;;;;;;;3.53;1.87;;;;;;;16.26;63.77;99429.44;5032818;28;20185;-83
2022/05/12 01:59:24;;;;;;;4.90;2.33;;;;;;;16.30;63.46;99426.47;5031835;28;20692;-83
2022/05/12 02:01:49;;;;;;;4.60;2.33;;;;;;;16.45;62.44;99429.84;5031807;28;20182;-83
2022/05/12 02:04:16;;;;;;;5.73;2.60;;;;;;;16.52;61.92;99431.97;5033133;28;20205;-83
2022/05/12 02:06:42;;;;;;;4.63;2.33;;;;;;;16.50;61.54;99436.50;5032524;28;20264;-83
2022/05/12 02:09:09;;;;;;;3.83;2.10;;;;;;;16.39;61.67;99440.84;5032637;28;20174;-83
2022/05/12 02:11:34;;;;;;;3.57;1.87;;;;;;;16.27;62.31;99437.25;5032805;28;20188;-83
2022/05/12 02:14:01;;;;;;;4.50;2.83;;;;;;;16.20;62.90;99437.81;5031583;28;20256;-83
2022/05/12 02:16:26;;;;;;;4.40;1.80;;;;;;;16.28;62.73;99432.81;5032490;28;20175;-83
2022/05/12 02:18:53;;;;;;;12.47;1.73;;;;;;;16.14;63.17;99433.78;5032717;28;20238;-83
2022/05/12 02:21:19;;;;;;;3.90;2.07;;;;;;;16.15;63.17;99429.34;5032444;28;20172;-83
2022/05/12 02:23:45;;;;;;;2.80;1.90;;;;;;;16.11;63.33;99430.53;5032329;28;20212;-83
2022/05/12 02:26:10;;;;;;;3.33;2.10;;;;;;;16.06;63.63;99435.31;5032869;28;20173;-83
2022/05/12 02:28:36;;;;;;;2.77;1.60;;;;;;;16.00;64.11;99436.56;5032072;28;20186;-83
2022/05/12 02:31:02;;;;;;;3.27;1.87;;;;;;;15.96;64.22;99435.09;5032529;28;20187;-83
2022/05/12 02:33:27;;;;;;;6.73;1.77;;;;;;;15.90;64.44;99439.03;5031225;28;20184;-83
2022/05/12 02:35:53;;;;;;;3.77;2.30;;;;;;;15.85;64.65;99440.28;5032245;28;20173;-83
2022/05/12 02:38:18;;;;;;;3.07;2.07;;;;;;;15.76;64.84;99441.75;5032194;28;20638;-83
2022/05/12 02:40:43;;;;;;;4.27;2.07;;;;;;;15.81;64.57;99454.66;5032423;28;20561;-83
2022/05/12 02:43:24;;;;;;;5.53;2.37;;;;;;;15.77;64.48;99454.03;5032053;28;20254;-83
2022/05/12 02:45:54;;;;;;;6.73;2.20;;;;;;;15.68;64.58;99454.66;5032403;28;20161;-83
2022/05/12 02:48:22;;;;;;;3.83;2.13;;;;;;;15.67;64.49;99450.31;5031076;28;20182;-83
2022/05/12 02:50:48;;;;;;;4.93;2.53;;;;;;;15.69;64.33;99461.66;5032252;28;20336;-83
2022/05/12 02:53:13;;;;;;;3.93;2.10;;;;;;;15.69;64.62;99455.50;5031789;28;20185;-83
2022/05/12 02:55:39;;;;;;;3.17;1.37;;;;;;;15.72;64.40;99457.94;5031964;28;20626;-83
2022/05/12 02:58:05;;;;;;;4.70;2.10;;;;;;;15.68;64.43;99461.72;5030898;28;20175;-83
2022/05/12 03:00:34;;;;;;;4.70;2.50;;;;;;;15.65;64.66;99454.00;5031850;28;20188;-83
2022/05/12 03:03:00;;;;;;;3.40;1.93;;;;;;;15.61;64.82;99463.09;5032562;28;20603;-83
2022/05/12 03:05:27;;;;;;;4.63;2.33;;;;;;;15.51;65.07;99469.97;5031763;28;20191;-83
2022/05/12 03:07:53;;;;;;;6.83;1.97;;;;;;;15.55;64.97;99460.88;5031780;28;20194;-83
2022/05/12 03:10:19;;;;;;;4.37;1.80;;;;;;;15.63;64.63;99456.78;5031715;28;20169;-83
2022/05/12 03:12:44;;;;;;;4.00;2.07;;;;;;;15.70;64.32;99478.31;5031628;28;20529;-83
2022/05/12 03:15:11;;;;;;;8.47;3.80;;;;;;;15.66;64.50;99468.94;5031614;28;20203;-83
2022/05/12 03:17:37;;;;;;;4.27;2.53;;;;;;;15.63;64.67;99479.69;5031559;28;20602;-83
2022/05/12 03:20:05;;;;;;;3.40;1.87;;;;;;;15.57;65.11;99477.47;5030569;28;20183;-83
2022/05/12 03:22:30;;;;;;;5.07;2.10;;;;;;;15.53;65.49;99471.56;5031346;28;20621;-83
2022/05/12 03:24:56;;;;;;;4.53;1.93;;;;;;;15.60;65.26;99478.13;5030440;28;20244;-83
2022/05/12 03:27:22;;;;;;;3.80;1.80;;;;;;;15.57;65.52;99477.47;5030473;28;20184;-83
2022/05/12 03:29:47;;;;;;;4.97;1.77;;;;;;;15.50;65.82;99486.75;5031339;28;20191;-83
2022/05/12 03:32:13;;;;;;;5.93;2.23;;;;;;;15.53;65.64;99481.28;5031579;28;20176;-83
2022/05/12 03:34:40;;;;;;;4.70;2.20;;;;;;;15.55;65.71;99488.16;5030859;28;20237;-83
2022/05/12 03:37:07;;;;;;;3.50;2.00;;;;;;;15.59;65.63;99486.16;5031212;28;20259;-83
2022/05/12 03:39:34;;;;;;;4.07;2.30;;;;;;;15.60;65.74;99493.97;5030227;28;20259;-83
2022/05/12 03:42:00;;;;;;;8.53;2.30;;;;;;;15.50;66.30;99494.69;5031475;28;20172;-83
2022/05/12 03:47:10;;;;;;;6.57;2.90;;;;;;;15.50;65.95;99506.09;5031635;28;20176;-83
2022/05/12 03:49:36;;;;;;;8.20;1.70;;;;;;;15.50;66.06;99508.75;5031311;28;20167;-83
2022/05/12 03:52:01;;;;;;;5.37;2.63;;;;;;;15.47;66.41;99508.09;5030055;28;20186;-83
2022/05/12 03:54:27;;;;;;;4.50;2.23;;;;;;;15.51;66.62;99504.31;5030805;28;20187;-83
2022/05/12 03:56:52;;;;;;;4.10;2.00;;;;;;;15.58;66.59;99508.22;5031504;28;20179;-83
2022/05/12 03:59:17;;;;;;;5.63;2.37;;;;;;;15.69;66.48;99509.22;5031124;28;20180;-83
2022/05/12 04:01:43;;;;;;;4.63;2.10;;;;;;;15.75;66.30;99513.22;5030868;28;20259;-83
2022/05/12 04:04:09;;;;;;;3.40;1.87;;;;;;;15.76;66.50;99515.78;5029844;28;20202;-83
2022/05/12 04:06:35;;;;;;;4.47;1.83;;;;;;;15.86;66.77;99515.97;5031335;28;20177;-83
2022/05/12 04:09:00;;;;;;;6.33;3.60;;;;;;;15.94;66.21;99518.94;5031047;28;20245;-83
2022/05/12 04:11:26;;;;;;;6.03;2.60;;;;;;;16.03;65.74;99517.47;5029779;28;20651;-83
2022/05/12 04:13:51;;;;;;;12.43;5.17;;;;;;;16.09;65.36;99522.38;5030954;28;20254;-83
2022/05/12 04:16:18;;;;;;;4.67;2.43;;;;;;;16.15;65.54;99512.19;5030596;28;20617;-83
2022/05/12 04:18:45;;;;;;;7.03;3.17;;;;;;;16.22;65.42;99516.09;5030676;28;20200;-83
2022/05/12 04:21:10;;;;;;;5.40;2.47;;;;;;;16.32;65.32;99518.97;5030621;28;20172;-83
2022/05/12 04:23:36;;;;;;;5.60;2.30;;;;;;;16.41;65.09;99524.44;5030771;28;20198;-83
2022/05/12 04:26:02;;;;;;;4.90;2.97;;;;;;;16.51;64.55;99524.63;5029593;28;20260;-84
2022/05/12 04:28:27;;;;;;;9.93;3.70;;;;;;;16.68;64.45;99521.69;5031019;28;20618;-83
2022/05/12 04:30:53;;;;;;;6.80;3.17;;;;;;;16.86;64.01;99519.50;5030460;28;20171;-83
2022/05/12 04:36:02;;;;;;;12.80;5.13;;;;;;;17.22;63.38;99531.91;5030769;28;20214;-83
2022/05/12 04:38:28;;;;;;;7.50;2.93;;;;;;;17.44;62.70;99522.25;5030460;28;20178;-83
2022/05/12 04:40:53;;;;;;;19.87;3.60;;;;;;;17.57;62.61;99520.41;5030394;28;20544;-83
2022/05/12 04:43:19;;;;;;;3.90;2.27;;;;;;;17.75;62.34;99523.47;5030580;28;20556;-83
2022/05/12 04:45:44;;;;;;;9.97;3.23;;;;;;;17.93;61.83;99531.81;5030417;28;20350;-83
2022/05/12 04:48:10;;;;;;;6.10;2.97;;;;;;;18.08;61.57;99528.00;5030395;28;20250;-83
2022/05/12 04:50:40;;;;;;;4.77;2.53;;;;;;;18.17;61.67;99530.78;5030028;28;20704;-83
2022/05/12 04:53:07;;;;;;;5.67;2.40;;;;;;;18.26;61.41;99526.59;5030488;28;20175;-83
2022/05/12 04:55:34;;;;;;;3.57;2.20;;;;;;;18.41;61.46;99525.38;5030294;28;20189;-83
2022/05/12 04:58:00;;;;;;;6.40;2.40;;;;;;;18.60;61.04;99530.97;5030184;28;20170;-83
2022/05/12 05:00:40;;;;;;;5.40;2.73;;;;;;;18.98;60.74;99531.41;5030198;28;20369;-83
2022/05/12 05:03:07;;;;;;;3.93;2.37;;;;;;;19.37;59.00;99531.78;5029220;28;20202;-83
2022/05/12 05:05:33;;;;;;;4.80;2.23;;;;;;;19.91;57.54;99529.03;5030112;28;20183;-83
2022/05/12 05:07:58;;;;;;;6.23;2.60;;;;;;;20.36;56.01;99524.28;5030360;28;20213;-83
2022/05/12 05:10:24;;;;;;;4.47;2.37;;;;;;;21.13;54.10;99528.91;5030000;28;20625;-83
2022/05/12 05:12:50;;;;;;;5.30;2.13;;;;;;;21.98;51.98;99521.94;5030071;28;20205;-83
2022/05/12 05:15:16;;;;;;;6.90;2.60;;;;;;;22.45;51.68;99522.81;5029973;28;20227;-83
2022/05/12 05:17:42;;;;;;;6.07;2.20;;;;;;;22.46;50.56;99527.13;5030008;28;20175;-82
2022/05/12 05:20:12;;;;;;;5.20;2.37;;;;;;;22.79;49.54;99524.94;5029913;28;20507;-83
2022/05/12 05:22:37;;;;;;;7.10;3.00;;;;;;;23.11;48.41;99533.34;5029843;28;20209;-83
2022/05/12 05:25:03;;;;;;;5.73;3.40;;;;;;;23.41;47.45;99529.50;5028965;28;20170;-83
2022/05/12 05:27:29;;;;;;;6.87;2.33;;;;;;;23.73;45.67;99532.47;5028943;28;20246;-82
2022/05/12 05:29:55;;;;;;;9.77;2.53;;;;;;;23.82;44.49;99529.72;5030083;28;20178;-83
2022/05/12 05:32:21;;;;;;;3.97;1.60;;;;;;;24.04;43.61;99535.56;5030090;28;20174;-82
2022/05/12 05:34:47;;;;;;;4.77;1.73;;;;;;;23.93;42.98;99530.44;5029630;28;20664;-80
2022/05/12 05:37:12;;;;;;;4.23;2.30;;;;;;;23.80;43.25;99536.22;5029716;28;20171;-81
2022/05/12 05:39:38;;;;;;;5.60;1.80;;;;;;;23.77;43.73;99537.38;5029635;28;20171;-80
2022/05/12 05:42:10;;;;;;;4.07;2.07;;;;;;;23.65;43.14;99543.97;5029559;28;20680;-80
2022/05/12 05:44:36;;;;;;;3.70;1.73;;;;;;;23.58;43.91;99547.41;5029544;28;20211;-80
2022/05/12 05:47:02;;;;;;;4.20;2.20;;;;;;;23.00;44.27;99550.44;5030029;28;20171;-80
2022/05/12 05:49:29;;;;;;;3.07;1.67;;;;;;;23.03;45.62;99541.28;5029719;28;20230;-80
2022/05/12 05:54:40;;;;;;;5.50;2.07;;;;;;;22.70;45.98;99550.72;5029335;28;20189;-81
2022/05/12 05:57:06;;;;;;;3.30;1.40;;;;;;;22.68;45.63;99555.38;5029852;28;20175;-81
2022/05/12 05:59:31;;;;;;;4.27;2.30;;;;;;;22.63;44.77;99550.47;5012022;28;20171;-80
2022/05/12 06:01:57;;;;;;;5.03;1.80;;;;;;;21.94;44.79;99547.22;5029386;28;20175;-81
2022/05/12 06:04:23;;;;;;;2.43;1.60;;;;;;;21.56;46.26;99557.06;5032672;28;20199;-80
2022/05/12 06:06:48;;;;;;;4.13;1.73;;;;;;;21.81;45.82;99551.13;5032691;28;20185;-81
2022/05/12 06:09:14;;;;;;;3.60;1.83;;;;;;;22.24;45.78;99553.38;5032653;28;20170;-81
2022/05/12 06:11:44;;;;;;;4.17;1.90;;;;;;;22.28;45.00;99550.25;5031697;28;20170;-81
2022/05/12 06:14:11;;;;;;;4.43;2.43;;;;;;;22.30;44.70;99544.78;5032907;28;20621;-81
2022/05/12 06:16:37;;;;;;;4.77;2.87;;;;;;;22.53;45.38;99536.28;5031606;28;20182;-81
2022/05/12 06:19:04;;;;;;;5.47;2.37;;;;;;;22.67;45.17;99542.16;5031557;28;20174;-81
2022/05/12 06:21:29;;;;;;;3.60;1.80;;;;;;;22.60;43.97;99542.72;5032531;28;20194;-81
2022/05/12 06:23:55;;;;;;;6.57;2.50;;;;;;;22.73;44.31;99545.06;5032400;28;20282;-81
2022/05/12 06:26:20;;;;;;;3.47;1.80;;;;;;;22.86;44.32;99539.38;5032467;28;20560;-81
2022/05/12 06:28:47;;;;;;;4.00;2.23;;;;;;;22.81;44.68;99545.19;5032676;28;20612;-81
2022/05/12 06:31:24;;;;;;;4.30;2.67;;;;;;;22.97;45.71;99541.88;5032437;28;20171;-81
2022/05/12 06:33:52;;;;;;;4.77;2.37;;;;;;;23.59;45.16;99549.06;5032988;28;20154;-81
2022/05/12 06:36:17;;;;;;;4.87;1.90;;;;;;;24.49;43.45;99538.06;5031355;28;20166;-82
2022/05/12 06:38:43;;;;;;;4.50;2.57;;;;;;;24.90;41.71;99543.50;5032286;28;20656;-82
2022/05/12 06:41:08;;;;;;;3.87;1.93;;;;;;;25.25;40.04;99542.47;5032476;28;20170;-81
2022/05/12 06:43:35;;;;;;;3.90;2.03;;;;;;;25.84;40.72;99538.69;5032429;28;20347;-81
2022/05/12 06:46:00;;;;;;;4.03;2.13;;;;;;;25.89;39.08;99536.34;5032173;28;20206;-82
2022/05/12 06:48:26;;;;;;;4.33;1.43;;;;;;;26.28;39.57;99538.38;5032132;28;20209;-81
2022/05/12 06:50:52;;;;;;;4.17;2.53;;;;;;;26.58;39.13;99541.16;5032403;28;20175;-81
2022/05/12 06:53:17;;;;;;;4.53;2.47;;;;;;;26.31;38.79;99540.72;5031977;28;20171;-81
2022/05/12 06:55:43;;;;;;;4.97;2.17;;;;;;;26.55;39.50;99530.72;5032684;28;20238;-82
2022/05/12 06:58:10;;;;;;;3.67;2.00;;;;;;;26.84;41.13;99535.53;5032027;28;20178;-82
2022/05/12 07:00:35;;;;;;;6.63;2.23;;;;;;;26.96;37.56;99547.63;5032540;28;20185;-82
2022/05/12 07:03:01;;;;;;;3.10;1.93;;;;;;;27.10;38.77;99538.78;5031833;28;20194;-81
2022/05/12 07:05:27;;;;;;;3.83;1.83;;;;;;;27.09;38.75;99541.66;5032112;28;20180;-81
2022/05/12 07:07:54;;;;;;;4.47;2.23;;;;;;;26.88;38.41;99539.56;5031809;28;20170;-81
2022/05/12 07:10:22;;;;;;;4.20;2.07;;;;;;;27.07;39.18;99531.06;5031839;28;20174;-82
2022/05/12 07:12:48;;;;;;;4.73;1.93;;;;;;;27.15;39.19;99530.19;5032057;28;20174;-82
2022/05/12 07:15:14;;;;;;;3.40;2.10;;;;;;;27.23;40.35;99532.81;5030737;28;20314;-82
2022/05/12 07:17:43;;;;;;;4.40;2.60;;;;;;;27.19;39.23;99532.34;5031997;28;20185;-82
2022/05/12 07:28:26;;;;;;;5.20;1.60;;;;;;;27.61;36.84;99531.94;5031846;28;20235;-82
2022/05/12 07:31:00;;;;;;;3.20;2.00;;;;;;;27.73;37.85;99532.34;5031511;28;20693;-82
2022/05/12 07:33:26;;;;;;;3.42;1.90;;;;;;;27.76;36.46;99530.13;5031533;28;20158;-82
2022/05/12 07:35:52;;;;;;;4.82;1.77;;;;;;;27.76;35.97;99530.13;5031462;28;20215;-82
2022/05/12 07:38:17;;;;;;;3.17;1.42;;;;;;;27.85;37.38;99531.75;5031940;28;20254;-83
2022/05/12 07:40:43;;;;;;;4.93;1.40;;;;;;;28.10;36.66;99527.00;5030426;28;20179;-83
2022/05/12 07:43:08;;;;;;;2.83;1.25;;;;;;;28.20;35.88;99532.97;5031228;28;20205;-83
2022/05/12 07:45:35;;;;;;;2.53;1.42;;;;;;;28.34;35.38;99534.88;5031310;28;20258;-83
2022/05/12 07:48:00;;;;;;;3.00;1.45;;;;;;;28.47;36.42;99528.81;5031288;28;20175;-83
2022/05/12 07:50:28;;;;;;;3.45;1.65;;;;;;;28.38;36.86;99525.38;5031205;28;20174;-83
2022/05/12 07:52:56;;;;;;;3.45;1.83;;;;;;;28.54;37.87;99533.28;5030254;28;20202;-83
2022/05/12 07:55:21;;;;;;;4.72;1.85;;;;;;;28.66;34.81;99535.56;5030144;28;20288;-83
2022/05/12 07:57:47;;;;;;;2.72;1.10;;;;;;;28.83;36.28;99531.63;5031371;28;20307;-82
2022/05/12 08:00:13;;;;;;;3.50;1.80;;;;;;;28.90;33.83;99530.72;5030132;28;20206;-83
2022/05/12 08:02:38;;;;;;;4.32;1.67;;;;;;;28.85;35.17;99526.91;5030922;28;20565;-83
2022/05/12 08:05:05;;;;;;;3.00;1.58;;;;;;;28.90;35.54;99532.59;5030035;28;20178;-83
2022/05/12 08:07:32;;;;;;;5.80;1.55;;;;;;;28.88;36.77;99529.25;5031250;28;20180;-83
2022/05/12 08:10:01;;;;;;;3.25;1.48;;;;;;;29.12;37.40;99531.59;5031208;28;20202;-84
2022/05/12 08:12:27;;;;;;;5.75;1.83;;;;;;;29.27;35.86;99532.47;5029923;28;20635;-83
2022/05/12 08:14:53;;;;;;;4.65;1.30;;;;;;;29.27;36.67;99521.66;5030850;28;20258;-83
2022/05/12 08:17:19;;;;;;;3.70;1.92;;;;;;;29.31;35.33;99519.38;5031097;28;20690;-83
2022/05/12 08:19:44;;;;;;;4.63;1.75;;;;;;;29.39;37.31;99525.53;5030757;28;20174;-83
2022/05/12 08:22:10;;;;;;;3.38;1.45;;;;;;;29.61;35.46;99524.47;5030786;28;20609;-84
2022/05/12 08:24:35;;;;;;;3.28;1.30;;;;;;;29.74;35.61;99523.81;5030774;28;20632;-83
2022/05/12 08:27:01;;;;;;;4.32;1.90;;;;;;;29.89;34.04;99521.88;5029365;28;20265;-83
2022/05/12 08:29:27;;;;;;;4.38;1.42;;;;;;;29.86;33.32;99524.13;5030937;28;20170;-83
2022/05/12 08:31:52;;;;;;;4.57;1.35;;;;;;;30.09;34.57;99514.75;5031193;28;20167;-83
2022/05/12 08:34:18;;;;;;;5.10;1.73;;;;;;;30.22;33.63;99522.13;5029659;28;20175;-84
2022/05/12 08:36:43;;;;;;;8.05;1.80;;;;;;;30.07;35.58;99518.69;5031088;28;20171;-83
2022/05/12 08:39:09;;;;;;;2.22;1.10;;;;;;;30.34;33.39;99520.56;5030499;28;20170;-84
2022/05/12 08:41:38;;;;;;;3.10;1.58;;;;;;;30.28;35.04;99515.94;5030791;28;20331;-84
2022/05/12 08:44:08;;;;;;;3.15;1.48;;;;;;;30.21;32.24;99515.91;5029647;28;20209;-84
2022/05/12 08:46:45;;;;;;;2.53;1.45;;;;;;;30.16;32.33;99512.13;5030055;28;20173;-84
2022/05/12 08:49:10;;;;;;;3.20;1.50;;;;;;;30.16;34.63;99512.13;5030682;28;20163;-83
2022/05/12 08:51:36;;;;;;;3.00;1.35;;;;;;;30.23;34.24;99515.72;5029355;28;20197;-83
2022/05/12 08:54:05;;;;;;;3.17;1.58;;;;;;;30.33;34.93;99502.66;5030252;28;20190;-84
2022/05/12 08:56:30;;;;;;;4.95;1.10;;;;;;;30.17;33.60;99505.66;5030322;28;20182;-84
2022/05/12 08:58:57;;;;;;;4.40;1.50;;;;;;;30.34;34.18;99505.19;5030733;28;20174;-84
2022/05/12 09:01:36;;;;;;;2.40;1.30;;;;;;;30.43;32.47;99501.31;5030844;28;20175;-83
2022/05/12 09:04:10;;;;;;;2.33;1.08;;;;;;;30.40;30.55;99507.09;5030523;28;20254;-84
2022/05/12 09:06:48;;;;;;;3.13;1.30;;;;;;;30.38;32.27;99511.06;5030457;28;20166;-84
2022/05/12 09:09:45;;;;;;;4.97;1.63;;;;;;;30.49;32.60;99513.22;5030431;28;20154;-84
2022/05/12 09:12:48;;;;;;;5.43;1.60;;;;;;;30.71;30.63;99501.28;5029152;28;20175;-84
2022/05/12 09:15:19;;;;;;;5.13;1.75;;;;;;;30.80;31.57;99510.03;5030329;28;20178;-82
2022/05/12 09:17:52;;;;;;;6.25;1.27;;;;;;;30.82;31.47;99513.38;5030304;28;20201;-83
2022/05/12 09:20:17;;;;;;;1.73;1.00;;;;;;;31.03;31.75;99507.88;5030277;28;20243;-83
2022/05/12 09:22:43;;;;;;;2.75;1.30;;;;;;;31.00;31.95;99511.81;5029903;28;20652;-83
2022/05/12 09:25:12;;;;;;;4.45;1.10;;;;;;;31.11;30.31;99510.41;5029939;28;20174;-84
2022/05/12 09:27:39;;;;;;;6.10;2.08;;;;;;;31.38;31.90;99511.31;5029218;28;20178;-84
2022/05/12 09:30:11;;;;;;;2.40;1.45;;;;;;;31.67;31.89;99505.59;5029859;28;20223;-84
2022/05/12 09:32:38;;;;;;;2.92;1.52;;;;;;;31.64;30.91;99508.69;5030131;28;20214;-84
2022/05/12 09:35:07;;;;;;;2.80;1.33;;;;;;;31.83;31.49;99501.63;5030051;28;20179;-83
2022/05/12 09:37:32;;;;;;;3.03;1.35;;;;;;;32.12;29.68;99502.09;5030652;28;20185;-84
2022/05/12 09:40:16;;;;;;;3.70;1.35;;;;;;;32.21;28.19;99500.81;5033577;28;20174;-83
2022/05/12 09:42:45;;;;;;;5.38;1.73;;;;;;;32.45;29.07;99493.03;5034169;28;20229;-84
2022/05/12 09:45:59;;;;;;;3.25;1.40;;;;;;;32.20;26.82;99503.75;5033624;28;20166;-85
2022/05/12 09:48:28;;;;;;;2.33;1.27;;;;;;;31.84;26.27;99504.13;4992544;28;20199;-84
2022/05/12 09:51:16;;;;;;;4.50;1.25;;;;;;;31.76;27.51;99500.81;5026469;28;20694;-84
2022/05/12 09:53:41;;;;;;;2.75;1.13;;;;;;;32.08;27.25;99495.41;5032004;28;20562;-84
2022/05/12 09:56:24;;;;;;;1.90;0.93;;;;;;;32.27;25.69;99492.88;5032088;28;20213;-84
2022/05/12 09:59:16;;;;;;;1.95;0.95;;;;;;;31.95;27.78;99498.09;5033013;28;20171;-83
2022/05/12 10:02:08;;;;;;;3.13;1.00;;;;;;;32.14;27.51;99483.72;5039908;28;20187;-84
2022/05/12 10:10:24;;;;;;;1.88;0.98;;;;;;;32.92;26.09;99476.41;5033120;28;20219;-83
2022/05/12 10:12:58;;;;;;;3.88;1.40;;;;;;;33.08;25.01;99475.97;5031842;28;20675;-84
2022/05/12 10:15:30;;;;;;;2.25;1.13;;;;;;;32.80;24.40;99475.44;5032391;28;20582;-84
2022/05/12 10:18:04;;;;;;;1.83;0.90;;;;;;;32.85;24.29;99475.63;5032712;28;20167;-85
2022/05/12 10:20:32;;;;;;;2.20;1.17;;;;;;;33.01;25.16;99480.56;5033265;28;20196;-82
2022/05/12 10:23:07;;;;;;;2.47;1.23;;;;;;;32.98;25.20;99469.28;5032797;28;20198;-84
2022/05/12 10:25:58;;;;;;;2.28;1.20;;;;;;;32.92;25.07;99470.16;5032891;28;20283;-84
2022/05/12 10:28:49;;;;;;;3.03;0.90;;;;;;;32.50;24.43;99468.81;5032873;28;20163;-84
2022/05/12 10:31:23;;;;;;;3.80;1.20;;;;;;;32.65;26.51;99458.59;5032390;28;20167;-86
2022/05/12 10:34:22;;;;;;;2.22;1.00;;;;;;;32.66;25.03;99452.09;5031453;28;20170;-85
2022/05/12 10:36:48;;;;;;;1.52;0.80;;;;;;;33.11;25.63;99448.34;5031472;28;20163;-84
2022/05/12 10:39:40;;;;;;;3.67;1.50;;;;;;;33.19;23.20;99450.81;5032833;28;20250;-85
2022/05/12 10:42:37;;;;;;;2.47;1.23;;;;;;;33.25;25.36;99438.25;5032594;28;20219;-84
2022/05/12 10:45:24;;;;;;;2.72;0.88;;;;;;;33.46;23.63;99439.78;5032549;28;20167;-84
2022/05/12 10:48:14;;;;;;;3.13;0.80;;;;;;;33.63;24.21;99432.75;5032281;28;20165;-85
2022/05/12 10:51:01;;;;;;;2.97;1.33;;;;;;;32.89;22.26;99433.38;5031167;28;20589;-84
2022/05/12 10:53:48;;;;;;;1.88;0.90;;;;;;;33.23;23.59;99430.28;5030990;28;20642;-85
2022/05/12 10:56:20;;;;;;;2.10;1.00;;;;;;;33.26;24.13;99431.75;5032435;28;20615;-84
2022/05/12 10:59:07;;;;;;;3.85;0.90;;;;;;;33.32;24.13;99431.72;5032034;28;20170;-84
2022/05/12 11:01:40;;;;;;;2.95;1.02;;;;;;;33.47;23.66;99423.22;5032266;28;20167;-84
2022/05/12 11:04:16;;;;;;;2.53;0.93;;;;;;;33.48;22.67;99426.78;5030950;28;20239;-85
2022/05/12 11:06:51;;;;;;;2.33;1.10;;;;;;;33.52;23.09;99420.69;5032460;28;20262;-85
2022/05/12 11:09:41;;;;;;;2.75;1.10;;;;;;;33.44;24.35;99420.94;5032463;28;20223;-85
2022/05/12 11:12:26;;;;;;;1.23;0.60;;;;;;;33.79;23.75;99419.44;5032197;28;20158;-86
2022/05/12 11:15:07;;;;;;;2.20;0.90;;;;;;;33.99;23.69;99405.63;5031147;28;20257;-86
2022/05/12 11:17:37;;;;;;;1.75;0.90;;;;;;;33.89;22.75;99410.75;5031115;28;20174;-86
2022/05/12 11:20:20;;;;;;;1.95;0.80;;;;;;;34.06;22.94;99402.88;5032032;28;20648;-86
2022/05/12 11:23:07;;;;;;;1.70;0.93;;;;;;;34.01;23.68;99409.00;5031913;28;20567;-85
2022/05/12 11:25:42;;;;;;;2.22;1.13;;;;;;;34.13;23.43;99404.50;5031937;28;20179;-86
2022/05/12 11:31:30;;;;;;;1.77;1.10;;;;;;;34.51;23.05;99398.84;5032081;28;20620;-86
2022/05/12 11:34:01;;;;;;;4.15;1.25;;;;;;;34.69;21.19;99395.28;5031799;28;20170;-84
2022/05/12 11:36:42;;;;;;;2.88;0.95;;;;;;;34.68;22.34;99396.31;5030525;28;20175;-84
2022/05/12 11:39:25;;;;;;;3.53;1.08;;;;;;;34.83;22.94;99385.88;5031386;28;20632;-87
2022/05/12 11:42:13;;;;;;;3.35;1.10;;;;;;;35.15;21.98;99388.13;5030398;28;20162;-86
2022/05/12 11:45:06;;;;;;;1.67;0.80;;;;;;;35.04;22.11;99374.44;5030692;28;20206;-86
2022/05/12 11:48:10;;;;;;;2.88;0.95;;;;;;;34.78;22.12;99370.22;5027837;28;20190;-86
2022/05/12 11:50:44;;;;;;;1.65;0.82;;;;;;;34.75;21.70;99375.31;5030579;28;20174;-86
2022/05/12 11:53:19;;;;;;;3.10;1.25;;;;;;;34.69;22.11;99373.50;5031002;28;20212;-84
2022/05/12 11:56:01;;;;;;;2.65;1.17;;;;;;;34.46;23.27;99369.53;5031764;28;20158;-86
2022/05/12 11:58:40;;;;;;;1.95;1.10;;;;;;;34.88;22.84;99362.31;5030136;28;20273;-85
2022/05/12 12:01:12;;;;;;;3.85;1.42;;;;;;;34.26;22.98;99368.13;5030074;28;20178;-85
2022/05/12 12:03:51;;;;;;;2.33;1.02;;;;;;;34.61;23.21;99360.19;5030887;28;20229;-85
2022/05/12 12:06:35;;;;;;;2.58;1.00;;;;;;;34.59;22.82;99358.50;5030115;28;20227;-85
2022/05/12 12:09:30;;;;;;;2.78;1.20;;;;;;;34.48;22.21;99353.84;5029993;28;20178;-88
2022/05/12 12:11:56;;;;;;;2.15;1.15;;;;;;;33.68;22.94;99343.19;5031281;28;20185;-85